createdAt,value
2022-12-27T00:03:17.105Z,101080.22
2022-12-27T00:08:39.870Z,101061.59
2022-12-27T00:14:05.593Z,101052.16
2022-12-27T00:19:25.998Z,101056.38
2022-12-27T00:24:47.259Z,101061.47
2022-12-27T00:30:08.686Z,101083.56
2022-12-27T00:35:29.460Z,101066.63
2022-12-27T00:40:50.182Z,101081.06
2022-12-27T00:46:11.513Z,101096.44
2022-12-27T00:51:32.318Z,101097.06
2022-12-27T00:56:53.132Z,101096.72
2022-12-27T01:02:14.135Z,101088.19
2022-12-27T01:07:34.760Z,101088.31
2022-12-27T01:12:56.072Z,101091.81
2022-12-27T01:18:16.819Z,101095.31
2022-12-27T01:23:38.175Z,101074.25
2022-12-27T01:28:58.814Z,101102.28
2022-12-27T01:34:19.516Z,101097.28
2022-12-27T01:39:40.129Z,101106.66
2022-12-27T01:45:02.045Z,101101.50
2022-12-27T01:50:32.061Z,101134.44
2022-12-27T01:56:04.882Z,101140.19
2022-12-27T02:01:29.898Z,101152.78
2022-12-27T02:06:51.900Z,101150.97
2022-12-27T02:12:13.673Z,101140.81
2022-12-27T02:17:34.751Z,101151.94
2022-12-27T02:23:39.598Z,101170.50
2022-12-27T02:29:08.404Z,101171.13
2022-12-27T02:34:47.046Z,101175.84
2022-12-27T02:40:28.962Z,101189.41
2022-12-27T02:46:39.203Z,101208.16
2022-12-27T02:52:51.290Z,101200.69
2022-12-27T02:58:33.373Z,101185.50
2022-12-27T03:04:07.253Z,101202.53
2022-12-27T03:10:01.307Z,101188.09
2022-12-27T03:15:51.448Z,101198.28
2022-12-27T03:21:36.326Z,101192.47
2022-12-27T03:26:58.895Z,101216.72
2022-12-27T03:32:40.422Z,101191.91
2022-12-27T03:38:05.621Z,101185.88
2022-12-27T03:43:26.156Z,101193.56
2022-12-27T03:49:14.309Z,101190.81
2022-12-27T03:54:40.865Z,101207.63
2022-12-27T04:00:02.107Z,101218.69
2022-12-27T04:05:22.694Z,101235.69
2022-12-27T04:11:02.226Z,101243.44
2022-12-27T04:16:41.453Z,101246.16
2022-12-27T04:22:20.092Z,101251.34
2022-12-27T04:27:59.467Z,101258.19
2022-12-27T04:33:38.526Z,101286.81
2022-12-27T04:38:58.963Z,101322.41
2022-12-27T04:44:38.508Z,101325.34
2022-12-27T04:50:18.295Z,101314.81
2022-12-27T04:55:38.636Z,101323.09
2022-12-27T05:01:21.636Z,101313.16
2022-12-27T05:06:42.555Z,101318.28
2022-12-27T05:12:22.008Z,101317.47
2022-12-27T05:17:42.694Z,101331.06
2022-12-27T05:23:22.009Z,101347.22
2022-12-27T05:28:43.024Z,101351.44
2022-12-27T05:34:04.899Z,101357.25
2022-12-27T05:39:25.352Z,101362.13
2022-12-27T05:44:47.249Z,101351.75
2022-12-27T05:50:08.740Z,101364.38
2022-12-27T05:55:29.603Z,101368.56
2022-12-27T06:00:49.979Z,101377.88
2022-12-27T06:06:11.407Z,101382.50
2022-12-27T06:11:31.958Z,101397.13
2022-12-27T06:16:52.877Z,101387.16
2022-12-27T06:22:13.386Z,101393.31
2022-12-27T06:27:38.322Z,101405.53
2022-12-27T06:32:58.800Z,101387.97
2022-12-27T06:38:19.117Z,101398.34
2022-12-27T06:43:41.236Z,101435.53
2022-12-27T06:49:02.226Z,101425.16
2022-12-27T06:54:22.929Z,101424.88
2022-12-27T06:59:44.061Z,101459.53
2022-12-27T07:05:06.816Z,101442.53
2022-12-27T07:11:44.280Z,101475.59
2022-12-27T07:17:04.760Z,101470.53
2022-12-27T07:22:26.784Z,101497.63
2022-12-27T07:27:47.282Z,101505.28
2022-12-27T07:33:09.150Z,101509.38
2022-12-27T07:38:29.671Z,101523.84
2022-12-27T07:43:50.658Z,101529.84
2022-12-27T07:49:17.401Z,101516.44
2022-12-27T07:54:38.273Z,101554.75
2022-12-27T07:59:58.766Z,101599.81
2022-12-27T08:05:25.887Z,101612.41
2022-12-27T08:10:48.139Z,101614.72
2022-12-27T08:16:16.139Z,101628.88
2022-12-27T08:21:36.657Z,101638.00
2022-12-27T08:26:57.132Z,101631.84
2022-12-27T08:32:17.902Z,101632.59
2022-12-27T08:37:38.106Z,101627.59
2022-12-27T08:42:59.623Z,101629.47
2022-12-27T08:48:20.304Z,101633.56
2022-12-27T08:53:40.499Z,101636.81
2022-12-27T08:59:01.170Z,101656.25
2022-12-27T09:04:21.916Z,101658.94
2022-12-27T09:09:42.516Z,101670.19
2022-12-27T09:15:03.137Z,101656.09
2022-12-27T09:20:24.746Z,101676.50
2022-12-27T09:25:45.172Z,101706.47
2022-12-27T09:31:06.207Z,101703.38
2022-12-27T09:36:29.174Z,101683.34
2022-12-27T09:42:46.685Z,101683.88
2022-12-27T09:47:58.590Z,101688.94
2022-12-27T09:53:32.420Z,101690.63
2022-12-27T09:58:57.849Z,101695.00
2022-12-27T10:04:19.170Z,101701.22
2022-12-27T10:09:54.081Z,101703.47
2022-12-27T10:15:24.653Z,101704.63
2022-12-27T10:21:13.331Z,101701.22
2022-12-27T10:26:34.039Z,101704.91
2022-12-27T10:31:54.391Z,101701.94
2022-12-27T10:37:16.286Z,101699.75
2022-12-27T10:42:41.563Z,101711.31
2022-12-27T10:48:18.843Z,101710.91
2022-12-27T10:53:54.134Z,101708.47
2022-12-27T10:59:30.957Z,101713.03
2022-12-27T11:05:00.649Z,101720.81
2022-12-27T11:10:27.555Z,101716.34
2022-12-27T11:15:59.057Z,101727.69
2022-12-27T11:21:27.287Z,101726.25
2022-12-27T11:26:55.190Z,101735.69
2022-12-27T11:32:15.744Z,101740.66
2022-12-27T11:37:40.014Z,101748.63
2022-12-27T11:43:15.304Z,101736.81
2022-12-27T11:48:44.899Z,101739.22
2022-12-27T11:54:08.077Z,101738.25
2022-12-27T11:59:36.371Z,101754.78
2022-12-27T12:05:05.817Z,101737.16
2022-12-27T12:10:55.364Z,101746.97
2022-12-27T12:16:40.532Z,101743.31
2022-12-27T12:22:45.036Z,101717.22
2022-12-27T12:28:56.419Z,101721.06
2022-12-27T12:34:14.745Z,101719.00
2022-12-27T12:39:55.430Z,101731.88
2022-12-27T12:45:38.949Z,101715.66
2022-12-27T12:51:26.944Z,101705.03
2022-12-27T12:56:59.038Z,101730.00
2022-12-27T13:02:56.082Z,101719.63
2022-12-27T13:08:51.102Z,101709.06
2022-12-27T13:14:37.177Z,101707.53
2022-12-27T13:20:18.310Z,101699.88
2022-12-27T13:26:01.434Z,101704.88
2022-12-27T13:31:45.179Z,101703.84
2022-12-27T13:37:34.432Z,101700.22
2022-12-27T13:43:18.614Z,101724.53
2022-12-27T13:49:05.966Z,101734.09
2022-12-27T13:54:26.580Z,101726.78
2022-12-27T14:00:21.059Z,101712.94
2022-12-27T14:06:16.897Z,101706.00
2022-12-27T14:11:56.215Z,101702.69
2022-12-27T14:17:30.207Z,101701.06
2022-12-27T14:23:07.824Z,101708.78
2022-12-27T14:28:37.264Z,101707.84
2022-12-27T14:34:16.548Z,101704.47
2022-12-27T14:40:07.510Z,101696.72
2022-12-27T14:46:01.723Z,101702.81
2022-12-27T14:52:01.639Z,101707.22
2022-12-27T14:57:51.184Z,101701.22
2022-12-27T15:03:42.068Z,101712.25
2022-12-27T15:09:24.008Z,101707.91
2022-12-27T15:14:47.924Z,101698.34
2022-12-27T15:20:29.020Z,101706.72
2022-12-27T15:26:16.571Z,101707.56
2022-12-27T15:31:45.803Z,101700.84
2022-12-27T15:37:26.728Z,101693.97
2022-12-27T15:51:36.610Z,101693.47
2022-12-27T15:57:29.566Z,101679.59
2022-12-27T16:02:51.239Z,101682.97
2022-12-27T16:08:33.926Z,101675.31
2022-12-27T16:14:22.471Z,101664.25
2022-12-27T16:19:57.124Z,101668.41
2022-12-27T16:25:33.324Z,101664.19
2022-12-27T16:30:56.495Z,101651.56
2022-12-27T16:36:35.290Z,101666.81
2022-12-27T16:41:55.773Z,101671.03
2022-12-27T16:47:37.458Z,101673.56
2022-12-27T16:53:07.701Z,101654.16
2022-12-27T16:58:30.853Z,101658.47
2022-12-27T17:03:52.824Z,101653.59
2022-12-27T17:09:12.978Z,101642.56
2022-12-27T17:14:41.775Z,101635.66
2022-12-27T17:20:07.473Z,101628.03
2022-12-27T17:25:44.724Z,101630.50
2022-12-27T17:31:20.984Z,101607.56
2022-12-27T17:37:19.231Z,101594.97
2022-12-27T17:43:04.589Z,101586.41
2022-12-27T17:48:29.407Z,101581.34
2022-12-27T17:54:14.460Z,101600.03
2022-12-27T17:59:35.220Z,101584.94
2022-12-27T18:05:23.237Z,101579.78
2022-12-27T18:10:48.199Z,101576.31
2022-12-27T18:16:24.582Z,101579.69
2022-12-27T18:29:12.304Z,101566.44
2022-12-27T18:34:44.495Z,101558.88
2022-12-27T18:40:06.740Z,101545.22
2022-12-27T18:45:36.059Z,101527.41
2022-12-27T18:50:59.177Z,101535.91
2022-12-27T18:56:30.385Z,101528.22
2022-12-27T19:01:51.505Z,101524.03
2022-12-27T19:07:19.201Z,101518.00
2022-12-27T19:12:40.529Z,101523.94
2022-12-27T19:18:04.566Z,101511.16
2022-12-27T19:23:38.294Z,101508.59
2022-12-27T19:29:27.255Z,101483.09
2022-12-27T19:34:57.868Z,101484.00
2022-12-27T19:40:19.967Z,101486.59
2022-12-27T19:45:44.348Z,101467.06
2022-12-27T19:51:06.145Z,101457.75
2022-12-27T19:56:27.237Z,101443.38
2022-12-27T20:01:50.045Z,101437.44
2022-12-27T20:07:27.450Z,101429.81
2022-12-27T20:12:49.314Z,101427.31
2022-12-27T20:18:13.197Z,101423.09
2022-12-27T20:23:33.820Z,101409.50
2022-12-27T20:28:54.544Z,101400.94
2022-12-27T20:34:15.357Z,101405.22
2022-12-27T20:39:35.881Z,101401.03
2022-12-27T20:44:56.502Z,101384.97
2022-12-27T20:50:17.618Z,101381.63
2022-12-27T20:55:39.171Z,101373.13
2022-12-27T21:01:13.232Z,101372.28
2022-12-27T21:06:35.226Z,101360.38
2022-12-27T21:11:58.510Z,101348.53
2022-12-27T21:23:33.256Z,101343.41
2022-12-27T21:28:58.564Z,101326.34
2022-12-27T21:34:56.583Z,101322.91
2022-12-27T21:40:59.415Z,101306.69
2022-12-27T21:46:48.665Z,101282.94
2022-12-27T21:52:09.409Z,101288.88
2022-12-27T21:57:29.683Z,101274.44
2022-12-27T22:02:50.444Z,101272.69
2022-12-27T22:08:11.237Z,101258.31
2022-12-27T22:13:32.892Z,101248.13
2022-12-27T22:18:55.833Z,101236.28
2022-12-27T22:24:19.710Z,101230.38
2022-12-27T22:29:41.665Z,101199.00
2022-12-27T22:35:02.556Z,101186.25
2022-12-27T22:40:40.767Z,101182.03
2022-12-27T22:46:08.666Z,101158.28
2022-12-27T22:51:31.898Z,101164.25
2022-12-27T22:56:52.376Z,101150.69
2022-12-27T23:02:13.109Z,101132.03
2022-12-27T23:08:04.547Z,101128.69
2022-12-27T23:13:15.184Z,101095.56
2022-12-27T23:18:41.906Z,101088.00
2022-12-27T23:24:02.638Z,101097.31
2022-12-27T23:29:23.488Z,101064.28
2022-12-27T23:34:46.967Z,101046.47
2022-12-27T23:40:08.323Z,101048.16
2022-12-27T23:45:28.971Z,101066.00
2022-12-27T23:50:49.405Z,101011.72
2022-12-27T23:56:25.201Z,101007.47
